createdAt,value
2023-04-01T00:02:03.637Z,97.92
2023-04-01T00:04:31.541Z,97.97
2023-04-01T00:06:59.489Z,98.14
2023-04-01T00:09:29.837Z,98.18
2023-04-01T00:11:57.785Z,98.30
2023-04-01T00:14:25.656Z,98.41
2023-04-01T00:16:53.449Z,98.62
2023-04-01T00:19:21.467Z,98.62
2023-04-01T00:21:49.420Z,98.74
2023-04-01T00:24:17.411Z,98.88
2023-04-01T00:26:45.494Z,98.78
2023-04-01T00:29:13.616Z,98.83
2023-04-01T00:31:41.554Z,99.05
2023-04-01T00:34:09.612Z,99.03
2023-04-01T00:36:37.912Z,99.13
2023-04-01T00:39:05.636Z,99.13
2023-04-01T00:41:33.465Z,99.29
2023-04-01T00:44:17.209Z,99.34
2023-04-01T00:46:45.272Z,99.24
2023-04-01T00:49:13.961Z,99.43
2023-04-01T00:51:42.943Z,99.43
2023-04-01T00:54:11.527Z,99.62
2023-04-01T00:56:57.188Z,99.86
2023-04-01T00:59:27.796Z,99.90
2023-04-01T01:01:55.620Z,99.88
2023-04-01T01:04:26.552Z,99.96
2023-04-01T01:07:10.492Z,99.97
2023-04-01T01:09:43.254Z,99.91
2023-04-01T01:12:16.037Z,99.96
2023-04-01T01:14:59.684Z,99.99
2023-04-01T01:17:27.429Z,99.88
2023-04-01T01:20:25.397Z,99.91
2023-04-01T01:23:04.349Z,100.00
2023-04-01T01:25:47.983Z,99.99
2023-04-01T01:28:24.740Z,100.00
2023-04-01T01:31:03.434Z,100.00
2023-04-01T01:33:57.685Z,100.00
2023-04-01T01:36:27.182Z,100.00
2023-04-01T01:38:55.972Z,100.00
2023-04-01T01:41:24.841Z,100.00
2023-04-01T01:43:55.833Z,100.00
2023-04-01T01:46:24.811Z,100.00
2023-04-01T01:48:53.247Z,100.00
2023-04-01T01:51:22.372Z,100.00
2023-04-01T01:53:50.332Z,100.00
2023-04-01T01:56:23.522Z,100.00
2023-04-01T01:58:56.483Z,100.00
2023-04-01T02:01:26.654Z,100.00
2023-04-01T02:03:55.859Z,100.00
2023-04-01T02:06:24.809Z,99.93
2023-04-01T02:09:09.596Z,99.97
2023-04-01T02:11:45.016Z,99.97
2023-04-01T02:14:16.728Z,100.00
2023-04-01T02:16:50.910Z,99.99
2023-04-01T02:19:23.728Z,100.00
2023-04-01T02:21:56.851Z,100.00
2023-04-01T02:24:25.984Z,100.00
2023-04-01T02:26:53.766Z,100.00
2023-04-01T02:29:22.660Z,100.00
2023-04-01T02:31:51.195Z,100.00
2023-04-01T02:34:20.270Z,100.00
2023-04-01T02:36:48.271Z,100.00
2023-04-01T02:39:16.656Z,100.00
2023-04-01T02:41:45.459Z,100.00
2023-04-01T02:44:14.446Z,100.00
2023-04-01T02:46:42.535Z,100.00
2023-04-01T02:49:10.336Z,100.00
2023-04-01T02:51:38.047Z,100.00
2023-04-01T02:54:05.931Z,100.00
2023-04-01T02:56:33.665Z,100.00
2023-04-01T02:59:01.324Z,100.00
2023-04-01T03:01:29.096Z,100.00
2023-04-01T03:03:56.944Z,100.00
2023-04-01T03:06:24.688Z,100.00
2023-04-01T03:08:52.391Z,100.00
2023-04-01T03:11:20.651Z,100.00
2023-04-01T03:13:48.312Z,100.00
2023-04-01T03:16:16.051Z,100.00
2023-04-01T03:18:44.622Z,100.00
2023-04-01T03:21:29.254Z,100.00
2023-04-01T03:23:57.056Z,100.00
2023-04-01T03:26:24.770Z,100.00
2023-04-01T03:28:52.495Z,100.00
2023-04-01T03:31:22.377Z,100.00
2023-04-01T03:33:52.794Z,100.00
2023-04-01T03:36:20.907Z,100.00
2023-04-01T03:38:48.695Z,100.00
2023-04-01T03:41:19.518Z,100.00
2023-04-01T03:43:47.556Z,100.00
2023-04-01T03:46:19.254Z,100.00
2023-04-01T03:48:47.751Z,100.00
2023-04-01T03:51:15.558Z,100.00
2023-04-01T03:53:43.574Z,100.00
2023-04-01T03:56:11.992Z,100.00
2023-04-01T03:58:40.065Z,100.00
2023-04-01T04:01:24.446Z,100.00
2023-04-01T04:03:55.400Z,100.00
2023-04-01T04:06:24.076Z,100.00
2023-04-01T04:08:52.029Z,100.00
2023-04-01T04:11:21.039Z,100.00
2023-04-01T04:13:49.043Z,100.00
2023-04-01T04:16:17.749Z,100.00
2023-04-01T04:18:48.353Z,100.00
2023-04-01T04:21:16.518Z,100.00
2023-04-01T04:23:44.816Z,100.00
2023-04-01T04:26:15.532Z,100.00
2023-04-01T04:28:44.036Z,100.00
2023-04-01T04:31:12.131Z,100.00
2023-04-01T04:33:44.468Z,100.00
2023-04-01T04:36:12.443Z,100.00
2023-04-01T04:38:40.803Z,100.00
2023-04-01T04:41:13.586Z,100.00
2023-04-01T04:43:42.709Z,100.00
2023-04-01T04:46:11.371Z,100.00
2023-04-01T04:48:39.590Z,100.00
2023-04-01T04:51:07.271Z,100.00
2023-04-01T04:53:35.475Z,100.00
2023-04-01T04:56:03.462Z,100.00
2023-04-01T04:58:40.511Z,100.00
2023-04-01T05:01:16.538Z,100.00
2023-04-01T05:03:45.404Z,100.00
2023-04-01T05:06:14.674Z,100.00
2023-04-01T05:08:43.798Z,100.00
2023-04-01T05:11:19.651Z,100.00
2023-04-01T05:13:48.031Z,100.00
2023-04-01T05:16:17.348Z,100.00
2023-04-01T05:18:45.404Z,100.00
2023-04-01T05:21:14.167Z,100.00
2023-04-01T05:23:42.270Z,100.00
2023-04-01T05:26:12.492Z,100.00
2023-04-01T05:28:40.861Z,100.00
2023-04-01T05:31:09.291Z,100.00
2023-04-01T05:33:41.830Z,100.00
2023-04-01T05:36:14.041Z,100.00
2023-04-01T05:38:43.463Z,100.00
2023-04-01T05:41:12.767Z,100.00
2023-04-01T05:43:43.913Z,100.00
2023-04-01T05:46:27.657Z,100.00
2023-04-01T05:49:18.696Z,100.00
2023-04-01T05:51:46.584Z,100.00
2023-04-01T05:54:14.275Z,100.00
2023-04-01T05:56:42.251Z,100.00
2023-04-01T05:59:11.473Z,100.00
2023-04-01T06:01:39.345Z,100.00
2023-04-01T06:04:07.729Z,100.00
2023-04-01T06:06:36.193Z,100.00
2023-04-01T06:09:15.028Z,100.00
2023-04-01T06:11:52.222Z,100.00
2023-04-01T06:14:19.859Z,100.00
2023-04-01T06:17:02.016Z,100.00
2023-04-01T06:19:29.923Z,100.00
2023-04-01T06:22:13.956Z,100.00
2023-04-01T06:24:43.067Z,100.00
2023-04-01T06:27:26.781Z,100.00
2023-04-01T06:30:10.891Z,100.00
2023-04-01T06:32:54.654Z,100.00
2023-04-01T06:35:39.505Z,100.00
2023-04-01T06:38:24.267Z,100.00
2023-04-01T06:41:10.345Z,100.00
2023-04-01T06:43:38.366Z,100.00
2023-04-01T06:46:33.323Z,100.00
2023-04-01T06:49:18.774Z,100.00
2023-04-01T06:52:22.513Z,100.00
2023-04-01T06:55:18.604Z,100.00
2023-04-01T06:58:36.496Z,100.00
2023-04-01T07:01:07.373Z,100.00
2023-04-01T07:03:43.089Z,100.00
2023-04-01T07:06:17.104Z,100.00
2023-04-01T07:08:54.564Z,100.00
2023-04-01T07:11:27.391Z,100.00
2023-04-01T07:14:11.059Z,100.00
2023-04-01T07:16:59.047Z,100.00
2023-04-01T07:19:42.997Z,100.00
2023-04-01T07:22:31.416Z,100.00
2023-04-01T07:25:20.381Z,100.00
2023-04-01T07:27:57.526Z,100.00
2023-04-01T07:30:25.797Z,100.00
2023-04-01T07:33:16.203Z,100.00
2023-04-01T07:35:51.701Z,100.00
2023-04-01T07:38:19.467Z,100.00
2023-04-01T07:41:00.342Z,100.00
2023-04-01T07:43:38.025Z,100.00
2023-04-01T07:46:24.682Z,100.00
2023-04-01T07:48:58.697Z,100.00
2023-04-01T07:51:42.401Z,100.00
2023-04-01T07:54:26.561Z,100.00
2023-04-01T07:57:10.466Z,100.00
2023-04-01T08:00:06.200Z,100.00
2023-04-01T08:03:02.340Z,100.00
2023-04-01T08:05:35.887Z,100.00
2023-04-01T08:08:18.173Z,100.00
2023-04-01T08:11:25.136Z,100.00
2023-04-01T08:14:08.789Z,100.00
2023-04-01T08:17:03.200Z,100.00
2023-04-01T08:19:43.523Z,100.00
2023-04-01T08:22:15.521Z,100.00
2023-04-01T08:24:47.592Z,100.00
2023-04-01T08:27:21.292Z,100.00
2023-04-01T08:29:56.827Z,100.00
2023-04-01T08:32:29.125Z,100.00
2023-04-01T08:35:17.187Z,100.00
2023-04-01T08:37:46.334Z,100.00
2023-04-01T08:40:19.461Z,100.00
2023-04-01T08:43:03.688Z,100.00
2023-04-01T08:45:31.853Z,100.00
2023-04-01T08:48:09.479Z,100.00
2023-04-01T08:50:54.381Z,100.00
2023-04-01T08:53:40.087Z,100.00
2023-04-01T08:56:24.521Z,100.00
2023-04-01T08:59:09.228Z,100.00
2023-04-01T09:01:55.076Z,100.00
2023-04-01T09:05:01.720Z,100.00
2023-04-01T09:07:45.937Z,100.00
2023-04-01T09:10:29.892Z,100.00
2023-04-01T09:13:02.161Z,100.00
2023-04-01T09:15:36.429Z,100.00
2023-04-01T09:18:20.729Z,100.00
2023-04-01T09:20:54.217Z,100.00
2023-04-01T09:23:38.813Z,100.00
2023-04-01T09:26:22.610Z,100.00
2023-04-01T09:29:06.240Z,100.00
2023-04-01T09:31:34.036Z,100.00
2023-04-01T09:34:23.855Z,100.00
2023-04-01T09:37:14.707Z,100.00
2023-04-01T09:39:47.687Z,100.00
2023-04-01T09:42:26.970Z,100.00
2023-04-01T09:45:20.109Z,100.00
2023-04-01T09:47:48.868Z,100.00
2023-04-01T09:50:20.334Z,100.00
2023-04-01T09:53:03.985Z,100.00
2023-04-01T09:55:38.615Z,100.00
2023-04-01T09:58:23.287Z,100.00
2023-04-01T10:01:30.117Z,100.00
2023-04-01T10:04:14.308Z,100.00
2023-04-01T10:06:58.129Z,100.00
2023-04-01T10:09:33.085Z,100.00
2023-04-01T10:12:00.786Z,100.00
2023-04-01T10:14:35.246Z,100.00
2023-04-01T10:17:19.383Z,100.00
2023-04-01T10:20:04.195Z,100.00
2023-04-01T10:22:49.019Z,100.00
2023-04-01T10:25:34.903Z,100.00
2023-04-01T10:28:07.638Z,100.00
2023-04-01T10:31:07.386Z,100.00
2023-04-01T10:33:51.796Z,100.00
2023-04-01T10:36:35.581Z,100.00
2023-04-01T10:39:19.443Z,100.00
2023-04-01T10:42:03.948Z,100.00
2023-04-01T10:45:03.627Z,100.00
2023-04-01T10:47:37.016Z,100.00
2023-04-01T10:50:04.782Z,100.00
2023-04-01T10:52:38.752Z,100.00
2023-04-01T10:55:22.471Z,100.00
2023-04-01T10:58:06.159Z,100.00
2023-04-01T11:01:13.206Z,100.00
2023-04-01T11:04:15.778Z,100.00
2023-04-01T11:07:15.778Z,100.00
2023-04-01T11:09:59.627Z,100.00
2023-04-01T11:12:48.192Z,100.00
2023-04-01T11:15:32.436Z,100.00
2023-04-01T11:18:18.311Z,100.00
2023-04-01T11:21:02.053Z,100.00
2023-04-01T11:23:55.058Z,100.00
2023-04-01T11:26:30.469Z,100.00
2023-04-01T11:29:13.132Z,100.00
2023-04-01T11:31:57.211Z,100.00
2023-04-01T11:34:41.691Z,100.00
2023-04-01T11:37:09.615Z,100.00
2023-04-01T11:39:38.136Z,100.00
2023-04-01T11:42:24.861Z,100.00
2023-04-01T11:45:16.553Z,100.00
2023-04-01T11:47:52.878Z,100.00
2023-04-01T11:50:21.043Z,100.00
2023-04-01T11:53:06.798Z,100.00
2023-04-01T11:55:51.449Z,100.00
2023-04-01T11:58:35.153Z,100.00
2023-04-01T12:01:25.940Z,100.00
2023-04-01T12:04:09.768Z,100.00
2023-04-01T12:06:40.580Z,100.00
2023-04-01T12:09:24.217Z,100.00
2023-04-01T12:12:12.061Z,100.00
2023-04-01T12:14:44.288Z,100.00
2023-04-01T12:17:28.109Z,100.00
2023-04-01T12:20:00.909Z,100.00
2023-04-01T12:22:36.288Z,100.00
2023-04-01T12:25:19.960Z,100.00
2023-04-01T12:27:53.626Z,100.00
2023-04-01T12:30:37.302Z,100.00
2023-04-01T12:33:20.928Z,100.00
2023-04-01T12:35:56.313Z,100.00
2023-04-01T12:38:40.208Z,100.00
2023-04-01T12:41:07.881Z,100.00
2023-04-01T12:43:51.626Z,100.00
2023-04-01T12:46:35.564Z,100.00
2023-04-01T12:49:06.397Z,100.00
2023-04-01T12:51:50.361Z,100.00
2023-04-01T12:54:18.045Z,100.00
2023-04-01T12:56:55.516Z,100.00
2023-04-01T12:59:39.703Z,100.00
2023-04-01T13:02:13.356Z,100.00
2023-04-01T13:04:57.437Z,100.00
2023-04-01T13:07:41.053Z,100.00
2023-04-01T13:10:11.869Z,100.00
2023-04-01T13:12:54.569Z,100.00
2023-04-01T13:15:38.563Z,100.00
2023-04-01T13:18:09.135Z,100.00
2023-04-01T13:20:36.933Z,100.00
2023-04-01T13:23:07.673Z,100.00
2023-04-01T13:25:59.258Z,100.00
2023-04-01T13:28:51.009Z,100.00
2023-04-01T13:31:34.697Z,100.00
2023-04-01T13:34:08.358Z,100.00
2023-04-01T13:36:52.075Z,100.00
2023-04-01T13:39:28.058Z,100.00
2023-04-01T13:42:21.794Z,100.00
2023-04-01T13:44:52.874Z,100.00
2023-04-01T13:47:20.560Z,100.00
2023-04-01T13:49:48.206Z,100.00
2023-04-01T13:52:31.958Z,100.00
2023-04-01T13:55:15.735Z,100.00
2023-04-01T13:57:43.356Z,100.00
2023-04-01T14:00:37.552Z,100.00
2023-04-01T14:03:11.850Z,100.00
2023-04-01T14:05:43.083Z,100.00
2023-04-01T14:08:37.822Z,100.00
2023-04-01T14:11:22.874Z,100.00
2023-04-01T14:14:01.162Z,100.00
2023-04-01T14:16:28.830Z,100.00
2023-04-01T14:19:12.565Z,100.00
2023-04-01T14:21:56.226Z,100.00
2023-04-01T14:24:33.304Z,100.00
2023-04-01T14:27:16.953Z,100.00
2023-04-01T14:29:54.626Z,100.00
2023-04-01T14:32:39.429Z,100.00
2023-04-01T14:35:18.665Z,100.00
2023-04-01T14:37:46.281Z,100.00
2023-04-01T14:40:30.234Z,100.00
2023-04-01T14:43:13.971Z,100.00
2023-04-01T14:45:57.755Z,100.00
2023-04-01T14:48:28.656Z,100.00
2023-04-01T14:50:58.550Z,100.00
2023-04-01T14:53:26.652Z,100.00
2023-04-01T14:55:58.530Z,100.00
2023-04-01T14:58:39.877Z,100.00
2023-04-01T15:01:07.524Z,100.00
2023-04-01T15:03:40.989Z,100.00
2023-04-01T15:06:24.679Z,100.00
2023-04-01T15:08:59.831Z,100.00
2023-04-01T15:11:33.297Z,100.00
2023-04-01T15:14:01.026Z,100.00
2023-04-01T15:16:34.914Z,100.00
2023-04-01T15:19:02.649Z,100.00
2023-04-01T15:21:47.213Z,100.00
2023-04-01T15:24:30.812Z,100.00
2023-04-01T15:27:14.505Z,100.00
2023-04-01T15:29:42.272Z,100.00
2023-04-01T15:32:17.288Z,100.00
2023-04-01T15:35:01.179Z,100.00
2023-04-01T15:37:31.872Z,100.00
2023-04-01T15:40:02.840Z,100.00
2023-04-01T15:42:30.701Z,100.00
2023-04-01T15:44:58.317Z,100.00
2023-04-01T15:47:26.373Z,100.00
2023-04-01T15:50:17.503Z,100.00
2023-04-01T15:52:48.364Z,100.00
2023-04-01T15:55:36.316Z,100.00
2023-04-01T15:58:04.033Z,100.00
2023-04-01T16:00:34.715Z,100.00
2023-04-01T16:03:22.473Z,100.00
2023-04-01T16:05:50.214Z,100.00
2023-04-01T16:08:34.063Z,100.00
2023-04-01T16:11:18.714Z,100.00
2023-04-01T16:13:54.946Z,100.00
2023-04-01T16:16:37.641Z,100.00
2023-04-01T16:19:14.933Z,100.00
2023-04-01T16:22:00.455Z,100.00
2023-04-01T16:24:41.854Z,100.00
2023-04-01T16:27:25.904Z,100.00
2023-04-01T16:30:03.660Z,100.00
2023-04-01T16:32:47.347Z,100.00
2023-04-01T16:35:24.155Z,100.00
2023-04-01T16:37:55.006Z,100.00
2023-04-01T16:40:26.015Z,100.00
2023-04-01T16:42:54.804Z,100.00
2023-04-01T16:45:27.452Z,100.00
2023-04-01T16:48:02.281Z,100.00
2023-04-01T16:50:48.375Z,100.00
2023-04-01T16:53:25.785Z,100.00
2023-04-01T16:56:05.965Z,100.00
2023-04-01T16:58:41.888Z,100.00
2023-04-01T17:01:25.601Z,100.00
2023-04-01T17:03:58.420Z,100.00
2023-04-01T17:06:35.926Z,100.00
2023-04-01T17:09:19.648Z,100.00
2023-04-01T17:12:03.363Z,100.00
2023-04-01T17:14:47.118Z,100.00
2023-04-01T17:17:14.791Z,100.00
2023-04-01T17:20:01.406Z,100.00
2023-04-01T17:22:39.151Z,100.00
2023-04-01T17:25:22.801Z,100.00
2023-04-01T17:28:05.462Z,100.00
2023-04-01T17:30:50.698Z,100.00
2023-04-01T17:33:30.788Z,100.00
2023-04-01T17:35:58.714Z,100.00
2023-04-01T17:38:42.440Z,100.00
2023-04-01T17:41:30.432Z,100.00
2023-04-01T17:44:21.525Z,100.00
2023-04-01T17:47:15.329Z,100.00
2023-04-01T17:49:51.506Z,100.00
2023-04-01T17:52:20.788Z,100.00
2023-04-01T17:54:54.204Z,100.00
2023-04-01T17:57:37.831Z,100.00
2023-04-01T18:00:24.577Z,100.00
2023-04-01T18:03:01.991Z,100.00
2023-04-01T18:05:35.880Z,100.00
2023-04-01T18:08:05.250Z,100.00
2023-04-01T18:10:47.683Z,100.00
2023-04-01T18:13:21.282Z,100.00
2023-04-01T18:15:52.215Z,100.00
2023-04-01T18:18:36.149Z,100.00
2023-04-01T18:21:29.937Z,100.00
2023-04-01T18:24:02.616Z,100.00
2023-04-01T18:26:33.363Z,100.00
2023-04-01T18:29:18.807Z,100.00
2023-04-01T18:31:52.437Z,100.00
2023-04-01T18:34:36.359Z,100.00
2023-04-01T18:37:20.040Z,100.00
2023-04-01T18:39:52.068Z,100.00
2023-04-01T18:42:25.977Z,100.00
2023-04-01T18:45:11.875Z,100.00
2023-04-01T18:47:44.703Z,100.00
2023-04-01T18:50:16.311Z,100.00
2023-04-01T18:52:44.621Z,100.00
2023-04-01T18:55:28.562Z,100.00
2023-04-01T18:58:07.326Z,100.00
2023-04-01T19:00:41.351Z,100.00
2023-04-01T19:03:12.278Z,100.00
2023-04-01T19:05:43.044Z,100.00
2023-04-01T19:08:26.734Z,100.00
2023-04-01T19:10:54.396Z,100.00
2023-04-01T19:13:38.024Z,100.00
2023-04-01T19:16:11.460Z,100.00
2023-04-01T19:18:48.364Z,100.00
2023-04-01T19:21:32.109Z,100.00
2023-04-01T19:24:16.678Z,100.00
2023-04-01T19:27:00.206Z,100.00
2023-04-01T19:29:43.933Z,100.00
2023-04-01T19:32:26.254Z,100.00
2023-04-01T19:34:59.909Z,100.00
2023-04-01T19:37:43.804Z,100.00
2023-04-01T19:40:27.550Z,100.00
2023-04-01T19:43:11.167Z,100.00
2023-04-01T19:45:42.478Z,100.00
2023-04-01T19:48:13.015Z,100.00
2023-04-01T19:50:40.655Z,100.00
2023-04-01T19:53:19.472Z,100.00
2023-04-01T19:56:01.880Z,100.00
2023-04-01T19:58:37.382Z,100.00
2023-04-01T20:01:07.074Z,100.00
2023-04-01T20:03:43.474Z,100.00
2023-04-01T20:06:34.309Z,100.00
2023-04-01T20:09:17.964Z,100.00
2023-04-01T20:11:59.846Z,100.00
2023-04-01T20:14:33.498Z,100.00
2023-04-01T20:17:08.054Z,100.00
2023-04-01T20:19:38.762Z,100.00
2023-04-01T20:22:16.913Z,100.00
2023-04-01T20:24:47.081Z,100.00
2023-04-01T20:27:14.734Z,100.00
2023-04-01T20:29:58.538Z,100.00
2023-04-01T20:32:46.500Z,100.00
2023-04-01T20:35:35.073Z,100.00
2023-04-01T20:38:19.104Z,100.00
2023-04-01T20:41:07.095Z,100.00
2023-04-01T20:43:37.844Z,100.00
2023-04-01T20:46:32.031Z,100.00
2023-04-01T20:49:02.482Z,100.00
2023-04-01T20:51:31.690Z,100.00
2023-04-01T20:54:15.436Z,100.00
2023-04-01T20:56:59.946Z,100.00
2023-04-01T20:59:43.588Z,100.00
2023-04-01T21:02:14.241Z,100.00
2023-04-01T21:04:52.145Z,100.00
2023-04-01T21:07:30.535Z,100.00
2023-04-01T21:10:14.179Z,100.00
2023-04-01T21:12:57.839Z,100.00
2023-04-01T21:15:38.674Z,100.00
2023-04-01T21:18:22.417Z,100.00
2023-04-01T21:21:06.090Z,100.00
2023-04-01T21:23:49.802Z,100.00
2023-04-01T21:26:34.463Z,100.00
2023-04-01T21:29:07.952Z,100.00
2023-04-01T21:31:51.657Z,100.00
2023-04-01T21:34:19.339Z,100.00
2023-04-01T21:37:02.947Z,100.00
2023-04-01T21:39:30.593Z,100.00
2023-04-01T21:42:09.271Z,100.00
2023-04-01T21:44:52.936Z,100.00
2023-04-01T21:47:36.605Z,100.00
2023-04-01T21:50:07.346Z,100.00
2023-04-01T21:52:38.156Z,100.00
2023-04-01T21:55:22.575Z,100.00
2023-04-01T21:57:53.146Z,100.00
2023-04-01T22:00:39.621Z,100.00
2023-04-01T22:03:27.424Z,100.00
2023-04-01T22:06:11.794Z,100.00
2023-04-01T22:08:42.835Z,100.00
2023-04-01T22:11:26.564Z,100.00
2023-04-01T22:14:10.756Z,100.00
2023-04-01T22:16:55.396Z,100.00
2023-04-01T22:19:23.154Z,100.00
2023-04-01T22:21:52.910Z,100.00
2023-04-01T22:24:23.561Z,100.00
2023-04-01T22:26:55.376Z,100.00
2023-04-01T22:29:32.642Z,100.00
2023-04-01T22:32:12.237Z,100.00
2023-04-01T22:34:46.832Z,100.00
2023-04-01T22:37:14.535Z,100.00
2023-04-01T22:39:58.265Z,100.00
2023-04-01T22:42:41.802Z,100.00
2023-04-01T22:45:26.529Z,100.00
2023-04-01T22:47:54.169Z,100.00
2023-04-01T22:50:22.872Z,100.00
2023-04-01T22:53:01.096Z,100.00
2023-04-01T22:55:31.414Z,100.00
2023-04-01T22:58:07.214Z,100.00
2023-04-01T23:00:37.348Z,100.00
2023-04-01T23:03:21.330Z,100.00
2023-04-01T23:05:56.237Z,100.00
2023-04-01T23:08:27.388Z,100.00
2023-04-01T23:10:57.206Z,100.00
2023-04-01T23:13:45.073Z,100.00
2023-04-01T23:16:13.708Z,100.00
2023-04-01T23:18:51.269Z,100.00
2023-04-01T23:21:18.956Z,100.00
2023-04-01T23:23:51.621Z,100.00
2023-04-01T23:26:41.455Z,100.00
2023-04-01T23:29:17.016Z,100.00
2023-04-01T23:31:48.567Z,100.00
2023-04-01T23:34:22.802Z,100.00
2023-04-01T23:36:53.237Z,100.00
2023-04-01T23:39:47.290Z,100.00
2023-04-01T23:42:20.631Z,100.00
2023-04-01T23:44:50.081Z,100.00
2023-04-01T23:47:20.320Z,100.00
2023-04-01T23:49:57.814Z,100.00
2023-04-01T23:52:35.931Z,100.00
2023-04-01T23:55:09.570Z,100.00
2023-04-01T23:57:37.960Z,100.00
